createdAt,value
2018-07-16T00:00:51.471Z,19.53
2018-07-16T00:03:20.164Z,19.50
2018-07-16T00:05:48.769Z,19.44
2018-07-16T00:08:17.448Z,19.45
2018-07-16T00:10:46.136Z,19.40
2018-07-16T00:13:14.790Z,19.30
2018-07-16T00:15:43.440Z,19.21
2018-07-16T00:18:12.125Z,19.11
2018-07-16T00:20:40.963Z,19.07
2018-07-16T00:23:09.599Z,19.04
2018-07-16T00:25:38.190Z,18.98
2018-07-16T00:28:06.979Z,18.95
2018-07-16T00:30:35.752Z,18.94
2018-07-16T00:33:04.360Z,18.94
2018-07-16T00:35:33.181Z,18.93
2018-07-16T00:38:01.744Z,18.86
2018-07-16T00:40:30.353Z,18.81
2018-07-16T00:42:59.036Z,18.78
2018-07-16T00:45:27.736Z,18.74
2018-07-16T00:47:56.459Z,18.69
2018-07-16T00:50:25.149Z,18.64
2018-07-16T00:52:53.781Z,18.60
2018-07-16T00:55:22.387Z,18.60
2018-07-16T00:57:51.122Z,18.61
2018-07-16T01:00:19.829Z,18.57
2018-07-16T01:02:48.390Z,18.57
2018-07-16T01:05:17.069Z,18.50
2018-07-16T01:07:45.762Z,18.45
2018-07-16T01:10:14.452Z,18.45
2018-07-16T01:12:43.180Z,18.44
2018-07-16T01:15:11.821Z,18.43
2018-07-16T01:17:40.487Z,18.43
2018-07-16T01:20:09.162Z,18.39
2018-07-16T01:22:37.809Z,18.35
2018-07-16T01:25:06.485Z,18.33
2018-07-16T01:27:35.177Z,18.29
2018-07-16T01:30:03.921Z,18.27
2018-07-16T01:32:33.005Z,18.26
2018-07-16T01:35:01.677Z,18.24
2018-07-16T01:37:30.630Z,18.22
2018-07-16T01:39:59.425Z,18.20
2018-07-16T01:42:28.118Z,18.20
2018-07-16T01:44:56.812Z,18.19
2018-07-16T01:47:25.439Z,18.18
2018-07-16T01:49:54.174Z,18.17
2018-07-16T01:52:22.946Z,18.08
2018-07-16T01:54:51.701Z,18.12
2018-07-16T01:57:20.380Z,17.22
2018-07-16T01:59:49.052Z,18.05
2018-07-16T02:02:17.770Z,18.05
2018-07-16T02:04:46.471Z,18.08
2018-07-16T02:07:15.185Z,18.05
2018-07-16T02:09:43.850Z,18.02
2018-07-16T02:12:12.517Z,18.02
2018-07-16T02:14:41.154Z,18.02
2018-07-16T02:17:09.739Z,17.96
2018-07-16T02:19:38.392Z,18.04
2018-07-16T02:22:07.154Z,18.05
2018-07-16T02:24:36.033Z,18.07
2018-07-16T02:27:04.654Z,18.05
2018-07-16T02:29:33.330Z,18.02
2018-07-16T02:32:02.160Z,18.01
2018-07-16T02:34:30.849Z,18.07
2018-07-16T02:36:59.423Z,18.10
2018-07-16T02:39:28.149Z,18.10
2018-07-16T02:41:56.832Z,18.08
2018-07-16T02:44:25.453Z,18.08
2018-07-16T02:46:54.084Z,18.09
2018-07-16T02:49:22.713Z,18.08
2018-07-16T02:51:51.415Z,18.13
2018-07-16T02:54:20.138Z,18.15
2018-07-16T02:56:48.830Z,18.14
2018-07-16T02:59:17.617Z,18.17
2018-07-16T03:01:46.382Z,18.15
2018-07-16T03:04:15.156Z,18.15
2018-07-16T03:06:43.877Z,18.11
2018-07-16T03:09:12.556Z,18.12
2018-07-16T03:11:41.209Z,18.18
2018-07-16T03:14:09.842Z,18.24
2018-07-16T03:16:38.724Z,18.26
2018-07-16T03:19:07.357Z,18.31
2018-07-16T03:21:36.038Z,18.36
2018-07-16T03:24:04.680Z,18.42
2018-07-16T03:26:33.414Z,18.47
2018-07-16T03:29:02.046Z,18.49
2018-07-16T03:31:30.832Z,18.51
2018-07-16T03:33:59.484Z,18.54
2018-07-16T03:36:28.136Z,18.53
2018-07-16T03:38:57.109Z,18.47
2018-07-16T03:41:25.722Z,18.48
2018-07-16T03:43:54.470Z,18.47
2018-07-16T03:46:23.179Z,18.48
2018-07-16T03:48:51.829Z,18.57
2018-07-16T03:51:20.541Z,18.60
2018-07-16T03:53:49.197Z,18.54
2018-07-16T03:56:17.808Z,18.58
2018-07-16T03:58:46.548Z,18.65
2018-07-16T04:01:15.283Z,18.74
2018-07-16T04:03:43.986Z,18.82
2018-07-16T04:06:12.605Z,18.90
2018-07-16T04:08:41.324Z,18.97
2018-07-16T04:11:10.049Z,19.05
2018-07-16T04:13:38.761Z,19.13
2018-07-16T04:16:07.386Z,19.20
2018-07-16T04:18:36.413Z,19.28
2018-07-16T04:21:05.100Z,19.37
2018-07-16T04:23:33.644Z,19.45
2018-07-16T04:26:02.370Z,19.56
2018-07-16T04:28:31.022Z,19.65
2018-07-16T04:30:59.740Z,19.67
2018-07-16T04:33:28.426Z,19.73
2018-07-16T04:35:57.110Z,19.86
2018-07-16T04:38:25.801Z,19.93
2018-07-16T04:40:54.539Z,19.79
2018-07-16T04:43:23.175Z,19.76
2018-07-16T04:45:51.886Z,19.94
2018-07-16T04:48:20.604Z,20.13
2018-07-16T04:50:49.238Z,20.22
2018-07-16T04:53:18.006Z,20.32
2018-07-16T04:55:46.749Z,20.30
2018-07-16T04:58:15.410Z,20.34
2018-07-16T05:00:44.025Z,20.57
2018-07-16T05:03:12.831Z,20.76
2018-07-16T05:05:41.571Z,20.99
2018-07-16T05:08:10.164Z,21.12
2018-07-16T05:10:38.813Z,21.08
2018-07-16T05:13:07.632Z,20.98
2018-07-16T05:15:36.256Z,20.87
2018-07-16T05:18:05.140Z,21.01
2018-07-16T05:20:33.855Z,21.32
2018-07-16T05:23:02.581Z,21.50
2018-07-16T05:25:31.402Z,21.41
2018-07-16T05:28:00.133Z,21.32
2018-07-16T05:30:28.767Z,21.37
2018-07-16T05:32:57.398Z,21.37
2018-07-16T05:35:26.109Z,21.46
2018-07-16T05:38:01.299Z,21.73
2018-07-16T05:40:30.102Z,21.74
2018-07-16T05:42:58.756Z,21.82
2018-07-16T05:45:27.433Z,22.04
2018-07-16T05:47:56.208Z,22.24
2018-07-16T05:50:24.880Z,22.41
2018-07-16T05:52:53.503Z,22.44
2018-07-16T05:55:22.284Z,22.25
2018-07-16T05:57:50.900Z,22.18
2018-07-16T06:00:19.537Z,22.27
2018-07-16T06:02:48.190Z,22.46
2018-07-16T06:05:16.940Z,22.60
2018-07-16T06:07:45.789Z,22.67
2018-07-16T06:10:14.412Z,22.75
2018-07-16T06:12:43.091Z,22.87
2018-07-16T06:15:11.822Z,22.97
2018-07-16T06:17:40.536Z,23.06
2018-07-16T06:20:10.708Z,23.13
2018-07-16T06:22:39.630Z,23.32
2018-07-16T06:25:08.787Z,23.28
2018-07-16T06:27:37.546Z,23.26
2018-07-16T06:30:06.370Z,23.36
2018-07-16T06:32:35.355Z,23.32
2018-07-16T06:35:04.211Z,23.14
2018-07-16T06:37:32.940Z,23.21
2018-07-16T06:40:01.611Z,23.39
2018-07-16T06:42:30.251Z,23.50
2018-07-16T06:44:58.932Z,23.47
2018-07-16T06:47:27.653Z,23.55
2018-07-16T06:49:56.504Z,23.47
2018-07-16T06:52:25.111Z,23.14
2018-07-16T06:57:21.468Z,23.23
2018-07-16T06:59:50.131Z,23.45
2018-07-16T07:02:18.861Z,23.73
2018-07-16T07:04:47.549Z,23.85
2018-07-16T07:07:16.202Z,23.98
2018-07-16T07:09:44.836Z,24.06
2018-07-16T07:12:13.647Z,24.01
2018-07-16T07:14:42.379Z,24.04
2018-07-16T07:17:11.016Z,23.94
2018-07-16T07:19:39.695Z,24.01
2018-07-16T07:22:08.331Z,24.23
2018-07-16T07:24:37.172Z,23.99
2018-07-16T07:27:05.952Z,24.17
2018-07-16T07:29:34.562Z,24.18
2018-07-16T07:32:03.310Z,24.21
2018-07-16T07:34:31.959Z,24.40
2018-07-16T07:37:00.678Z,24.56
2018-07-16T07:39:29.248Z,24.48
2018-07-16T07:41:57.916Z,24.37
2018-07-16T07:44:26.527Z,24.49
2018-07-16T07:46:55.406Z,24.61
2018-07-16T07:49:24.042Z,24.78
2018-07-16T07:51:52.692Z,25.03
2018-07-16T07:54:21.644Z,25.02
2018-07-16T07:56:50.091Z,25.19
2018-07-16T07:59:18.777Z,25.13
2018-07-16T08:01:47.555Z,25.21
2018-07-16T08:04:16.276Z,25.45
2018-07-16T08:06:49.828Z,25.72
2018-07-16T08:09:18.458Z,26.05
2018-07-16T08:11:47.145Z,26.09
2018-07-16T08:14:15.859Z,26.16
2018-07-16T08:16:44.566Z,25.98
2018-07-16T08:19:13.180Z,25.94
2018-07-16T08:21:41.952Z,25.97
2018-07-16T08:24:10.674Z,26.09
2018-07-16T08:26:39.838Z,26.24
2018-07-16T08:29:08.478Z,26.22
2018-07-16T08:31:37.278Z,26.20
2018-07-16T08:34:06.220Z,25.90
2018-07-16T08:36:35.040Z,25.79
2018-07-16T08:39:04.941Z,26.23
2018-07-16T08:41:33.541Z,26.72
2018-07-16T08:44:02.436Z,26.40
2018-07-16T08:46:31.214Z,26.37
2018-07-16T08:49:00.286Z,26.45
2018-07-16T08:51:29.037Z,26.55
2018-07-16T08:53:57.866Z,26.44
2018-07-16T08:56:26.625Z,26.38
2018-07-16T08:58:55.530Z,26.06
2018-07-16T09:01:24.239Z,25.96
2018-07-16T09:03:53.166Z,26.04
2018-07-16T09:06:21.847Z,26.38
2018-07-16T09:08:50.525Z,26.66
2018-07-16T09:11:19.321Z,26.72
2018-07-16T09:13:47.964Z,26.45
2018-07-16T09:16:16.544Z,26.72
2018-07-16T09:18:45.315Z,26.88
2018-07-16T09:21:13.948Z,27.15
2018-07-16T09:23:42.565Z,26.84
2018-07-16T09:26:11.386Z,26.79
2018-07-16T09:28:40.443Z,26.54
2018-07-16T09:31:09.424Z,26.94
2018-07-16T09:33:38.237Z,26.90
2018-07-16T09:36:06.946Z,26.97
2018-07-16T09:38:35.739Z,27.31
2018-07-16T09:41:04.528Z,27.71
2018-07-16T09:43:33.212Z,27.83
2018-07-16T09:46:01.907Z,27.78
2018-07-16T09:48:30.528Z,27.94
2018-07-16T09:50:59.200Z,28.25
2018-07-16T09:53:27.870Z,28.48
2018-07-16T09:55:56.528Z,28.82
2018-07-16T09:58:25.272Z,28.82
2018-07-16T10:00:59.161Z,28.98
2018-07-16T10:03:27.911Z,28.81
2018-07-16T10:05:56.622Z,28.81
2018-07-16T10:08:25.430Z,28.63
2018-07-16T10:10:54.141Z,28.49
2018-07-16T10:13:22.926Z,28.64
2018-07-16T10:15:51.544Z,28.66
2018-07-16T10:18:20.369Z,28.83
2018-07-16T10:20:48.981Z,28.93
2018-07-16T10:23:17.617Z,28.84
2018-07-16T10:25:46.406Z,28.90
2018-07-16T10:28:15.071Z,29.14
2018-07-16T10:30:43.786Z,29.01
2018-07-16T10:33:12.576Z,28.87
2018-07-16T10:35:41.230Z,29.17
2018-07-16T10:38:10.026Z,28.97
2018-07-16T10:40:38.975Z,29.21
2018-07-16T10:43:07.670Z,29.56
2018-07-16T10:45:36.348Z,28.65
2018-07-16T10:48:06.223Z,29.04
2018-07-16T10:50:34.998Z,29.58
2018-07-16T10:53:03.617Z,29.69
2018-07-16T10:56:02.918Z,29.22
2018-07-16T10:58:31.548Z,29.38
2018-07-16T11:01:00.218Z,29.62
2018-07-16T11:03:28.956Z,29.71
2018-07-16T11:06:09.410Z,30.03
2018-07-16T11:08:38.081Z,29.82
2018-07-16T11:11:06.963Z,29.97
2018-07-16T11:13:35.541Z,30.31
2018-07-16T11:16:04.175Z,30.48
2018-07-16T11:18:32.860Z,30.76
2018-07-16T11:21:01.589Z,30.79
2018-07-16T11:23:30.227Z,31.10
2018-07-16T11:25:59.014Z,31.01
2018-07-16T11:28:27.640Z,31.09
2018-07-16T11:30:56.270Z,31.28
2018-07-16T11:33:25.184Z,31.37
2018-07-16T11:35:53.940Z,31.56
2018-07-16T11:38:22.615Z,31.82
2018-07-16T11:40:51.408Z,31.84
2018-07-16T11:43:19.995Z,31.30
2018-07-16T11:45:48.748Z,31.02
2018-07-16T11:48:17.628Z,31.28
2018-07-16T11:50:46.338Z,31.34
2018-07-16T11:53:15.001Z,31.58
2018-07-16T11:55:43.574Z,32.03
2018-07-16T11:58:12.351Z,32.26
2018-07-16T12:00:41.152Z,32.38
2018-07-16T12:03:09.957Z,32.75
2018-07-16T12:05:38.525Z,32.78
2018-07-16T12:08:07.318Z,32.93
2018-07-16T12:10:36.547Z,33.14
2018-07-16T12:13:05.207Z,32.72
2018-07-16T12:15:33.854Z,32.31
2018-07-16T12:18:02.699Z,31.80
2018-07-16T12:20:31.421Z,31.64
2018-07-16T12:22:59.963Z,31.05
2018-07-16T12:25:28.715Z,31.06
2018-07-16T12:27:57.594Z,30.89
2018-07-16T12:30:26.296Z,30.86
2018-07-16T12:32:55.255Z,30.73
2018-07-16T12:35:24.124Z,30.54
2018-07-16T12:37:52.724Z,31.04
2018-07-16T12:40:21.412Z,31.11
2018-07-16T12:42:50.120Z,30.60
2018-07-16T12:45:18.823Z,30.31
2018-07-16T12:47:47.501Z,30.44
2018-07-16T12:50:16.345Z,30.51
2018-07-16T12:52:45.040Z,30.60
2018-07-16T12:55:13.696Z,30.29
2018-07-16T12:57:42.477Z,30.29
2018-07-16T13:00:11.202Z,30.45
2018-07-16T13:02:39.861Z,30.62
2018-07-16T13:05:08.737Z,30.84
2018-07-16T13:07:37.421Z,31.16
2018-07-16T13:10:06.269Z,30.94
2018-07-16T13:12:35.095Z,30.87
2018-07-16T13:15:03.858Z,31.12
2018-07-16T13:17:32.545Z,31.37
2018-07-16T13:20:01.219Z,31.51
2018-07-16T13:22:29.812Z,31.65
2018-07-16T13:24:58.432Z,31.81
2018-07-16T13:27:27.015Z,32.88
2018-07-16T13:29:55.797Z,34.14
2018-07-16T13:32:24.561Z,35.28
2018-07-16T13:34:53.121Z,35.76
2018-07-16T13:37:21.983Z,36.47
2018-07-16T13:39:50.630Z,35.92
2018-07-16T13:42:19.357Z,35.53
2018-07-16T13:44:48.036Z,36.79
2018-07-16T13:47:16.721Z,36.74
2018-07-16T13:49:45.493Z,36.16
2018-07-16T13:52:14.098Z,35.75
2018-07-16T13:54:43.043Z,35.35
2018-07-16T13:57:11.658Z,35.35
2018-07-16T13:59:40.295Z,34.67
2018-07-16T14:02:09.173Z,33.76
2018-07-16T14:04:37.801Z,32.95
2018-07-16T14:07:06.491Z,32.36
2018-07-16T14:09:35.205Z,31.62
2018-07-16T14:12:03.911Z,31.53
2018-07-16T14:14:32.598Z,31.25
2018-07-16T14:17:01.327Z,31.05
2018-07-16T14:19:30.018Z,31.26
2018-07-16T14:21:58.706Z,31.37
2018-07-16T14:24:27.471Z,31.13
2018-07-16T14:26:56.245Z,30.70
2018-07-16T14:29:24.845Z,30.67
2018-07-16T14:31:53.437Z,30.79
2018-07-16T14:34:22.070Z,31.09
2018-07-16T14:36:50.809Z,31.04
2018-07-16T14:39:19.503Z,31.40
2018-07-16T14:41:48.129Z,31.77
2018-07-16T14:44:16.806Z,31.94
2018-07-16T14:46:45.753Z,32.09
2018-07-16T14:49:14.673Z,32.63
2018-07-16T14:51:43.353Z,32.61
2018-07-16T14:54:12.186Z,33.25
2018-07-16T14:56:41.111Z,33.38
2018-07-16T14:59:09.826Z,33.35
2018-07-16T15:01:38.557Z,34.41
2018-07-16T15:04:07.640Z,35.25
2018-07-16T15:06:36.448Z,35.32
2018-07-16T15:09:07.311Z,35.38
2018-07-16T15:11:35.924Z,35.51
2018-07-16T15:14:04.675Z,35.14
2018-07-16T15:16:33.366Z,34.88
2018-07-16T15:19:02.049Z,35.43
2018-07-16T15:21:30.950Z,34.78
2018-07-16T15:23:59.690Z,33.46
2018-07-16T15:26:28.350Z,33.21
2018-07-16T15:28:57.368Z,32.83
2018-07-16T15:31:25.960Z,31.68
2018-07-16T15:33:54.585Z,31.06
2018-07-16T15:36:23.510Z,30.46
2018-07-16T15:38:52.231Z,29.24
2018-07-16T15:41:20.917Z,29.03
2018-07-16T15:43:49.662Z,29.19
2018-07-16T15:46:18.507Z,28.74
2018-07-16T15:48:47.207Z,28.49
2018-07-16T15:51:15.760Z,28.44
2018-07-16T15:53:44.415Z,28.27
2018-07-16T15:56:13.206Z,27.93
2018-07-16T15:58:42.157Z,28.22
2018-07-16T16:01:10.875Z,27.99
2018-07-16T16:03:39.590Z,27.94
2018-07-16T16:06:08.564Z,27.85
2018-07-16T16:08:37.344Z,27.82
2018-07-16T16:11:06.503Z,27.67
2018-07-16T16:13:35.230Z,27.66
2018-07-16T16:16:04.014Z,27.74
2018-07-16T16:18:32.605Z,27.69
2018-07-16T16:21:01.260Z,27.70
2018-07-16T16:23:29.955Z,27.45
2018-07-16T16:25:58.672Z,27.58
2018-07-16T16:28:27.612Z,27.66
2018-07-16T16:30:56.243Z,27.61
2018-07-16T16:33:25.144Z,27.59
2018-07-16T16:35:53.795Z,27.68
2018-07-16T16:38:22.701Z,27.69
2018-07-16T16:40:51.367Z,27.73
2018-07-16T16:43:20.126Z,27.66
2018-07-16T16:45:48.904Z,27.61
2018-07-16T16:48:17.558Z,27.46
2018-07-16T16:50:46.499Z,27.33
2018-07-16T16:53:15.102Z,27.25
2018-07-16T16:55:43.840Z,27.27
2018-07-16T16:58:12.533Z,27.15
2018-07-16T17:00:41.180Z,27.20
2018-07-16T17:03:09.795Z,27.29
2018-07-16T17:05:38.684Z,27.25
2018-07-16T17:08:07.313Z,26.98
2018-07-16T17:10:36.026Z,27.13
2018-07-16T17:13:04.776Z,27.02
2018-07-16T17:15:33.432Z,26.89
2018-07-16T17:18:02.095Z,26.92
2018-07-16T17:20:30.731Z,27.01
2018-07-16T17:22:59.413Z,27.08
2018-07-16T17:25:28.543Z,27.11
2018-07-16T17:27:57.165Z,27.02
2018-07-16T17:30:25.877Z,26.80
2018-07-16T17:32:54.516Z,26.76
2018-07-16T17:35:23.373Z,26.82
2018-07-16T17:37:52.001Z,26.90
2018-07-16T17:40:20.598Z,26.87
2018-07-16T17:42:49.349Z,26.71
2018-07-16T17:45:17.986Z,26.77
2018-07-16T17:47:46.651Z,26.86
2018-07-16T17:50:15.388Z,26.89
2018-07-16T17:52:44.201Z,26.85
2018-07-16T17:55:12.834Z,26.84
2018-07-16T17:57:41.508Z,26.69
2018-07-16T18:00:10.435Z,26.68
2018-07-16T18:02:39.146Z,26.59
2018-07-16T18:05:07.779Z,26.54
2018-07-16T18:07:36.586Z,26.49
2018-07-16T18:10:05.697Z,26.42
2018-07-16T18:12:34.295Z,26.28
2018-07-16T18:15:03.023Z,26.35
2018-07-16T18:17:31.750Z,26.28
2018-07-16T18:20:00.411Z,26.32
2018-07-16T18:22:29.072Z,26.34
2018-07-16T18:24:57.722Z,26.30
2018-07-16T18:27:26.484Z,26.39
2018-07-16T18:29:55.156Z,26.31
2018-07-16T18:32:23.983Z,26.31
2018-07-16T18:34:52.604Z,26.00
2018-07-16T18:37:21.282Z,26.10
2018-07-16T18:39:49.999Z,26.01
2018-07-16T18:42:18.979Z,26.04
2018-07-16T18:44:48.072Z,25.94
2018-07-16T18:47:16.828Z,25.84
2018-07-16T18:49:45.501Z,25.82
2018-07-16T18:52:14.170Z,25.78
2018-07-16T18:54:42.947Z,25.74
2018-07-16T18:57:11.563Z,25.70
2018-07-16T18:59:40.229Z,25.50
2018-07-16T19:02:08.884Z,25.52
2018-07-16T19:04:37.530Z,25.43
2018-07-16T19:07:06.308Z,25.39
2018-07-16T19:09:35.410Z,25.39
2018-07-16T19:12:04.149Z,25.36
2018-07-16T19:14:32.893Z,25.33
2018-07-16T19:17:02.111Z,25.34
2018-07-16T19:19:31.183Z,25.31
2018-07-16T19:22:00.023Z,25.28
2018-07-16T19:24:28.932Z,25.29
2018-07-16T19:26:57.529Z,25.26
2018-07-16T19:29:27.234Z,25.27
2018-07-16T19:31:56.237Z,25.23
2018-07-16T19:34:24.917Z,25.19
2018-07-16T19:36:53.531Z,25.17
2018-07-16T19:39:22.317Z,25.11
2018-07-16T19:41:51.053Z,25.06
2018-07-16T19:44:19.654Z,25.00
2018-07-16T19:46:48.481Z,24.92
2018-07-16T19:49:17.163Z,24.84
2018-07-16T19:51:45.964Z,24.72
2018-07-16T19:54:14.699Z,24.67
2018-07-16T19:56:43.360Z,24.61
2018-07-16T19:59:11.958Z,24.49
2018-07-16T20:01:40.789Z,24.36
2018-07-16T20:04:09.565Z,24.27
2018-07-16T20:06:38.221Z,24.20
2018-07-16T20:09:07.412Z,24.18
2018-07-16T20:11:36.286Z,24.12
2018-07-16T20:14:04.922Z,24.02
2018-07-16T20:16:40.485Z,23.97
2018-07-16T20:19:09.296Z,23.86
2018-07-16T20:21:37.990Z,23.84
2018-07-16T20:24:06.817Z,23.77
2018-07-16T20:26:35.510Z,23.70
2018-07-16T20:29:04.321Z,23.64
2018-07-16T20:31:33.116Z,23.59
2018-07-16T20:34:01.777Z,23.58
2018-07-16T20:36:30.696Z,23.51
2018-07-16T20:38:59.336Z,23.45
2018-07-16T20:41:27.916Z,23.41
2018-07-16T20:43:56.564Z,23.38
2018-07-16T20:46:25.258Z,23.33
2018-07-16T20:48:54.241Z,23.29
2018-07-16T20:51:22.888Z,23.24
2018-07-16T20:53:52.000Z,23.22
2018-07-16T20:56:21.722Z,23.18
2018-07-16T20:58:50.451Z,23.07
2018-07-16T21:01:19.343Z,22.99
2018-07-16T21:03:47.947Z,22.88
2018-07-16T21:06:16.566Z,22.75
2018-07-16T21:08:45.322Z,22.67
2018-07-16T21:11:14.213Z,22.58
2018-07-16T21:13:42.771Z,22.44
2018-07-16T21:16:11.482Z,22.39
2018-07-16T21:18:40.162Z,22.27
2018-07-16T21:21:08.928Z,22.28
2018-07-16T21:23:37.739Z,22.24
2018-07-16T21:26:06.532Z,22.18
2018-07-16T21:28:35.239Z,22.07
2018-07-16T21:31:03.971Z,22.02
2018-07-16T21:33:32.692Z,21.98
2018-07-16T21:36:01.378Z,21.89
2018-07-16T21:38:30.034Z,21.82
2018-07-16T21:40:58.669Z,21.84
2018-07-16T21:43:27.381Z,21.77
2018-07-16T21:45:56.080Z,21.73
2018-07-16T21:48:24.798Z,21.68
2018-07-16T21:50:53.438Z,21.62
2018-07-16T21:53:22.128Z,21.52
2018-07-16T21:55:50.952Z,21.51
2018-07-16T21:58:19.621Z,21.47
2018-07-16T22:00:48.894Z,21.43
2018-07-16T22:03:17.643Z,21.40
2018-07-16T22:05:46.409Z,21.34
2018-07-16T22:08:15.015Z,21.32
2018-07-16T22:10:43.690Z,21.30
2018-07-16T22:13:12.370Z,21.28
2018-07-16T22:15:41.095Z,21.26
2018-07-16T22:18:09.807Z,21.23
2018-07-16T22:20:38.457Z,21.13
2018-07-16T22:23:07.278Z,21.12
2018-07-16T22:25:35.925Z,21.06
2018-07-16T22:28:04.578Z,20.96
2018-07-16T22:30:33.193Z,20.86
2018-07-16T22:33:01.846Z,20.69
2018-07-16T22:35:30.579Z,20.57
2018-07-16T22:37:59.326Z,20.57
2018-07-16T22:40:27.969Z,20.52
2018-07-16T22:42:56.683Z,20.40
2018-07-16T22:45:25.441Z,20.38
2018-07-16T22:47:54.361Z,20.39
2018-07-16T22:50:23.122Z,20.33
2018-07-16T22:52:51.957Z,20.27
2018-07-16T22:55:20.613Z,20.20
2018-07-16T22:57:49.185Z,20.17
2018-07-16T23:00:17.895Z,20.08
2018-07-16T23:02:46.486Z,20.11
2018-07-16T23:05:15.225Z,20.08
2018-07-16T23:07:43.991Z,20.02
2018-07-16T23:10:12.813Z,19.94
2018-07-16T23:12:41.552Z,19.88
2018-07-16T23:15:10.328Z,19.79
2018-07-16T23:17:39.010Z,19.73
2018-07-16T23:20:07.672Z,19.74
2018-07-16T23:22:48.404Z,19.69
2018-07-16T23:25:17.085Z,19.62
2018-07-16T23:27:45.806Z,19.60
2018-07-16T23:30:14.394Z,19.56
2018-07-16T23:32:43.078Z,19.54
2018-07-16T23:35:11.773Z,19.53
2018-07-16T23:37:40.547Z,19.52
2018-07-16T23:40:09.306Z,19.52
2018-07-16T23:42:37.902Z,19.48
2018-07-16T23:45:06.580Z,19.42
2018-07-16T23:47:35.365Z,19.46
2018-07-16T23:50:04.123Z,19.42
2018-07-16T23:52:32.797Z,19.40
2018-07-16T23:55:01.330Z,19.35
2018-07-16T23:57:30.271Z,19.30
2018-07-16T23:59:59.021Z,19.17
